EBLG/LGG METAR and TAF weather

Enter ICAO airport designator
Station Type Date Time Source
EBLG METAR 2021/07/29 02:50 UTC NOAA

EBLG 290250Z 22013KT CAVOK 15/12 Q1012 NOSIG


Station Type Date Time Source
EBLG Decoded METAR 2021/07/29 02:50 UTC NOAA

Bierset, Belgium (EBLG) 50-39N 005-27E 178M
Jul 28, 2021 - 10:50 PM EDT / 2021.07.29 0250 UTC
Wind: from the SW (220 degrees) at 15 MPH (13 KT):0
Visibility: greater than 7 mile(s):0
Temperature: 59 F (15 C)
Dew Point: 53 F (12 C)
Relative Humidity: 82%
Pressure (altimeter): 29.88 in. Hg (1012 hPa)
ob: EBLG 290250Z 22013KT CAVOK 15/12 Q1012 NOSIG
cycle: 3

Station Type Date Time Source
EBLG TAF 2021/07/28 18:27 UTC NOAA

TAF EBLG 281700Z 2818/2924 21012KT 9999 SCT025TCU SCT040 PROB30
TEMPO 2818/2822 21015G25KT SHRA
TEMPO 2910/2915 23015G25KT

Example: see airport list